Currently 57°F in San Diego (City Heights), California, USA
57°F
59°F / 56°F
1 mph NE
0.00"
Wednesday, April 26, 2017 6:43 AM PDT

San Diego (City Heights), California Weather Summary
Last 36 Hours

Temperature Winds Hourly Humidity Dewpoint
Time Report Norm Report Norm Max Gusts Precip. Rpt. Norm Rpt. Norm Pressure
1Wed 06:43 AM  56.9°F  59°F  1 mph NE  1 mph  2 mph  0.00"  83%  79%  52°F  52°F  N/A
Wed 06:00 AM  56.5°F  58°F  1 mph NE  1 mph  3 mph  0.00"  83%  80%  51°F  52°F  N/A
3Wed 05:25 AM  56.4°F  58°F  calm  1 mph  none  ----  85%  80%  52°F  52°F  N/A
Wed 05:00 AM  56.8°F  58°F  calm  1 mph  none  0.00"  87%  80%  53°F  52°F  N/A
Wed 04:00 AM  57.6°F  59°F  calm  1 mph  none  0.00"  89%  79%  54°F  52°F  N/A
Wed 03:00 AM  57.4°F  59°F  calm  1 mph  none  0.00"  88%  79%  54°F  52°F  N/A
Wed 02:00 AM  58.1°F  59°F  calm  1 mph  none  0.00"  88%  79%  54°F  52°F  N/A
Wed 01:00 AM  58.4°F  60°F  calm  1 mph  none  0.00"  87%  78%  54°F  53°F  N/A
2Wed 12:01 AM  59.4°F  60°F  calm  1 mph  none  ----  85%  77%  55°F  53°F  N/A
Wed 12:00 AM  59.3°F  60°F  calm  1 mph  1 mph  0.00"  85%  77%  55°F  53°F  N/A
Tue 11:00 PM  60.2°F  61°F  calm  1 mph  3 mph  0.00"  84%  76%  55°F  53°F  N/A
Tue 10:00 PM  61.1°F  62°F  calm  1 mph  none  0.00"  82%  75%  55°F  53°F  N/A
Tue 09:00 PM  62.0°F  62°F  calm  1 mph  4 mph  0.00"  80%  73%  56°F  53°F  N/A
Tue 08:00 PM  62.8°F  63°F  1 mph SE  2 mph  5 mph  0.00"  78%  70%  55°F  53°F  N/A
Tue 07:00 PM  64.6°F  65°F  2 mph S  2 mph  8 mph  0.00"  67%  66%  53°F  53°F  N/A
Tue 06:00 PM  66.5°F  68°F  4 mph SW  3 mph  9 mph  0.00"  57%  59%  50°F  52°F  N/A
Tue 05:00 PM  66.9°F  69°F  3 mph W  4 mph  10 mph  0.00"  56%  56%  50°F  52°F  N/A
Tue 04:00 PM  68.5°F  70°F  4 mph W  4 mph  13 mph  0.00"  57%  54%  52°F  52°F  N/A
Tue 03:00 PM  69.2°F  71°F  7 mph S  4 mph  11 mph  0.00"  60%  53%  54°F  52°F  N/A
Tue 02:00 PM  68.4°F  71°F  4 mph SW  4 mph  13 mph  0.00"  65%  53%  56°F  52°F  N/A
Tue 01:00 PM  69.9°F  71°F  5 mph S  4 mph  12 mph  0.00"  62%  53%  56°F  52°F  N/A
Tue 12:00 PM  70.3°F  70°F  6 mph S  4 mph  15 mph  0.00"  61%  55%  55°F  53°F  N/A
Tue 11:05 AM  69.2°F  69°F  6 mph S  3 mph  10 mph  0.00"  63%  58%  56°F  53°F  N/A
Tue 10:00 AM  64.8°F  67°F  5 mph SE  3 mph  12 mph  0.00"  75%  61%  56°F  52°F  N/A
Tue 09:00 AM  62.7°F  64°F  5 mph SE  2 mph  11 mph  0.00"  80%  67%  56°F  53°F  N/A
Tue 08:00 AM  62.2°F  61°F  4 mph S  1 mph  11 mph  0.00"  80%  73%  56°F  53°F  N/A
Tue 07:00 AM  60.4°F  59°F  calm  1 mph  8 mph  0.00"  84%  78%  55°F  52°F  N/A
Tue 06:00 AM  60.2°F  58°F  3 mph SE  1 mph  9 mph  0.00"  85%  80%  56°F  51°F  N/A
Tue 05:00 AM  59.8°F  58°F  3 mph SE  1 mph  6 mph  0.00"  86%  80%  55°F  52°F  N/A
Tue 04:00 AM  60.5°F  58°F  calm  1 mph  7 mph  0.00"  85%  80%  56°F  52°F  N/A
Tue 03:00 AM  60.7°F  59°F  3 mph SE  1 mph  10 mph  0.00"  84%  80%  56°F  52°F  N/A
Tue 02:00 AM  60.8°F  59°F  4 mph S  1 mph  9 mph  0.00"  79%  80%  54°F  52°F  N/A
Tue 01:00 AM  60.4°F  60°F  1 mph SE  1 mph  8 mph  0.00"  80%  79%  54°F  53°F  N/A
Tue 12:00 AM  61.1°F  60°F  3 mph S  1 mph  7 mph  0.00"  81%  78%  55°F  53°F  N/A
Mon 11:00 PM  60.6°F  61°F  1 mph S  1 mph  10 mph  0.00"  79%  77%  54°F  53°F  N/A
Mon 10:00 PM  61.1°F  61°F  5 mph S  1 mph  9 mph  0.00"  82%  75%  55°F  53°F  N/A
Mon 09:00 PM  62.1°F  62°F  2 mph SE  1 mph  6 mph  0.00"  79%  73%  55°F  53°F  N/A
Mon 08:00 PM  62.2°F  63°F  2 mph S  1 mph  8 mph  0.00"  78%  71%  55°F  53°F  N/A
Mon 07:00 PM  62.9°F  65°F  4 mph SE  2 mph  11 mph  0.00"  77%  66%  55°F  53°F  N/A

  1. Current weather data. No green row appears if the current weather data is also the high or low for the current day.
  2. High temperature for the current day.
  3. Low temperature for the current day.

The San Diego (City Height), California weather pages are a service of WeatherCurrents. City Heights is a San Diego community, located east of Balboa Park, near Interstate 15
Copyright ©Wed Apr 26 06:44:04 PDT 2017  WeatherCurrents. All rights reserved. - Submit questions and comments - Privacy Policy

This page automatically refreshes every 10 minutes.